createdAt,value
2023-02-14T00:00:05.853Z,29.25
2023-02-14T00:05:09.976Z,29.63
2023-02-14T00:10:11.642Z,27.55
2023-02-14T00:15:25.491Z,30.52
2023-02-14T00:20:28.304Z,30.27
2023-02-14T00:25:29.900Z,24.60
2023-02-14T00:30:31.673Z,30.40
2023-02-14T00:35:33.391Z,29.75
2023-02-14T00:40:35.012Z,28.80
2023-02-14T00:45:36.695Z,30.85
2023-02-14T00:50:38.339Z,29.35
2023-02-14T00:55:40.203Z,33.88
2023-02-14T01:00:43.188Z,29.00
2023-02-14T01:05:44.867Z,29.88
2023-02-14T01:10:46.986Z,30.83
2023-02-14T01:15:51.238Z,27.83
2023-02-14T01:20:52.837Z,30.52
2023-02-14T01:25:54.583Z,24.25
2023-02-14T01:30:56.206Z,29.25
2023-02-14T01:35:58.445Z,33.20
2023-02-14T01:41:00.381Z,32.28
2023-02-14T01:46:02.237Z,28.52
2023-02-14T01:51:03.997Z,29.60
2023-02-14T01:56:08.766Z,30.75
2023-02-14T02:01:13.542Z,31.30
2023-02-14T02:06:18.110Z,27.50
2023-02-14T02:11:19.753Z,28.52
2023-02-14T02:16:33.585Z,28.77
2023-02-14T02:22:22.789Z,25.23
2023-02-14T02:27:26.418Z,30.40
2023-02-14T02:32:57.619Z,28.48
2023-02-14T02:38:27.141Z,32.50
2023-02-14T02:43:46.609Z,27.33
2023-02-14T02:49:02.407Z,27.67
2023-02-14T02:54:10.077Z,28.35
2023-02-14T02:59:20.908Z,26.25
2023-02-14T03:04:47.187Z,31.83
2023-02-14T03:09:51.336Z,30.58
2023-02-14T03:15:07.044Z,25.10
2023-02-14T03:20:21.362Z,28.20
2023-02-14T03:25:25.873Z,27.38
2023-02-14T03:30:50.659Z,26.90
2023-02-14T03:36:17.570Z,24.52
2023-02-14T03:41:22.639Z,24.02
2023-02-14T03:46:28.781Z,23.45
2023-02-14T03:51:34.421Z,22.20
2023-02-14T03:56:57.822Z,21.38
2023-02-14T04:02:11.209Z,16.10
2023-02-14T04:07:20.461Z,21.75
2023-02-14T04:12:36.852Z,18.58
2023-02-14T04:17:58.082Z,16.67
2023-02-14T04:23:01.310Z,23.08
2023-02-14T04:28:04.027Z,20.08
2023-02-14T04:33:07.954Z,20.80
2023-02-14T04:38:09.553Z,21.55
2023-02-14T04:43:11.213Z,22.10
2023-02-14T04:48:12.835Z,24.33
2023-02-14T04:53:14.496Z,17.95
2023-02-14T04:58:18.073Z,24.05
2023-02-14T05:03:19.685Z,22.30
2023-02-14T05:08:21.269Z,23.45
2023-02-14T05:13:23.404Z,18.17
2023-02-14T05:18:26.114Z,16.33
2023-02-14T05:23:27.748Z,20.73
2023-02-14T05:28:29.937Z,23.45
2023-02-14T05:33:31.544Z,20.30
2023-02-14T05:38:34.859Z,22.85
2023-02-14T05:43:36.535Z,23.27
2023-02-14T05:48:38.189Z,20.10
2023-02-14T05:53:39.894Z,18.73
2023-02-14T05:58:41.637Z,17.33
2023-02-14T06:03:43.279Z,17.42
2023-02-14T06:08:44.965Z,18.90
2023-02-14T06:13:46.619Z,17.13
2023-02-14T06:18:48.311Z,20.45
2023-02-14T06:23:50.028Z,20.48
2023-02-14T06:28:55.676Z,21.67
2023-02-14T06:33:57.509Z,19.48
2023-02-14T06:38:59.116Z,17.70
2023-02-14T06:44:00.812Z,21.13
2023-02-14T06:49:02.478Z,20.20
2023-02-14T06:54:04.262Z,17.85
2023-02-14T06:59:06.384Z,17.27
2023-02-14T07:04:08.090Z,16.30
2023-02-14T07:09:09.773Z,21.95
2023-02-14T07:14:12.107Z,23.08
2023-02-14T07:19:13.885Z,25.58
2023-02-14T07:24:15.627Z,27.05
2023-02-14T07:29:17.361Z,26.08
2023-02-14T07:34:18.985Z,26.65
2023-02-14T07:39:20.604Z,28.52
2023-02-14T07:44:22.600Z,25.27
2023-02-14T07:49:24.229Z,26.90
2023-02-14T07:54:25.863Z,23.10
2023-02-14T07:59:27.484Z,24.42
2023-02-14T08:04:29.269Z,21.98
2023-02-14T08:09:30.938Z,21.77
2023-02-14T08:14:32.692Z,25.88
2023-02-14T08:19:34.498Z,20.70
2023-02-14T08:24:36.125Z,21.40
2023-02-14T08:29:37.830Z,18.90
2023-02-14T08:34:39.456Z,26.50
2023-02-14T08:39:41.088Z,20.60
2023-02-14T08:44:42.898Z,20.13
2023-02-14T08:49:44.542Z,19.52
2023-02-14T08:54:46.192Z,19.92
2023-02-14T08:59:48.519Z,15.93
2023-02-14T09:04:50.230Z,22.27
2023-02-14T09:09:51.873Z,19.02
2023-02-14T09:14:53.546Z,14.95
2023-02-14T09:19:55.145Z,16.17
2023-02-14T09:24:56.892Z,13.93
2023-02-14T09:29:58.696Z,47.83
2023-02-14T09:35:00.485Z,19.38
2023-02-14T09:40:02.341Z,17.42
2023-02-14T09:45:12.936Z,17.23
2023-02-14T09:50:22.777Z,17.63
2023-02-14T09:55:27.817Z,19.08
2023-02-14T10:00:35.890Z,17.95
2023-02-14T10:06:02.453Z,15.55
2023-02-14T10:11:06.929Z,16.73
2023-02-14T10:16:22.151Z,18.45
2023-02-14T10:21:47.896Z,15.32
2023-02-14T10:26:50.883Z,19.65
2023-02-14T10:31:58.427Z,15.73
2023-02-14T10:37:44.729Z,16.55
2023-02-14T10:43:01.531Z,16.50
2023-02-14T10:48:09.745Z,17.48
2023-02-14T10:53:36.438Z,18.92
2023-02-14T10:58:39.426Z,15.65
2023-02-14T11:03:51.731Z,18.70
2023-02-14T11:08:55.548Z,15.30
2023-02-14T11:13:58.030Z,14.38
2023-02-14T11:19:14.866Z,13.60
2023-02-14T11:24:37.390Z,14.35
2023-02-14T11:29:38.924Z,16.10
2023-02-14T11:35:02.115Z,13.48
2023-02-14T11:40:05.281Z,16.60
2023-02-14T11:45:07.593Z,14.52
2023-02-14T11:50:24.747Z,17.52
2023-02-14T11:55:29.643Z,15.88
2023-02-14T12:00:31.787Z,18.27
2023-02-14T12:05:45.156Z,17.08
2023-02-14T12:11:04.791Z,16.10
2023-02-14T12:16:21.770Z,20.88
2023-02-14T12:21:57.204Z,14.25
2023-02-14T12:27:28.425Z,14.38
2023-02-14T12:32:31.532Z,14.80
2023-02-14T12:38:12.034Z,15.50
2023-02-14T12:43:23.305Z,15.80
2023-02-14T12:48:47.168Z,15.38
2023-02-14T12:54:08.989Z,16.35
2023-02-14T12:59:22.106Z,16.60
2023-02-14T13:09:51.420Z,15.40
2023-02-14T13:15:15.540Z,14.10
2023-02-14T13:20:52.490Z,14.50
2023-02-14T13:26:24.991Z,16.58
2023-02-14T13:31:27.456Z,15.27
2023-02-14T13:36:29.698Z,16.42
2023-02-14T13:41:31.651Z,16.13
2023-02-14T13:46:33.257Z,16.52
2023-02-14T13:52:03.827Z,14.93
2023-02-14T13:57:36.652Z,18.98
2023-02-14T14:02:50.036Z,14.63
2023-02-14T14:08:20.350Z,16.05
2023-02-14T14:13:39.944Z,14.65
2023-02-14T14:18:43.169Z,16.83
2023-02-14T14:23:44.884Z,11.35
2023-02-14T14:28:46.646Z,11.43
2023-02-14T14:33:58.771Z,13.35
2023-02-14T14:39:00.474Z,14.05
2023-02-14T14:44:03.024Z,14.00
2023-02-14T14:49:09.522Z,18.90
2023-02-14T14:54:17.347Z,18.98
2023-02-14T14:59:22.484Z,23.50
2023-02-14T15:04:28.330Z,24.30
2023-02-14T15:09:32.185Z,24.42
2023-02-14T15:14:36.327Z,23.23
2023-02-14T15:19:43.436Z,20.13
2023-02-14T15:24:45.482Z,21.92
2023-02-14T15:29:58.565Z,25.23
2023-02-14T15:40:03.344Z,22.83
2023-02-14T15:45:15.346Z,25.38
2023-02-14T15:50:19.651Z,27.80
2023-02-14T15:55:23.191Z,27.63
2023-02-14T16:00:25.545Z,25.23
2023-02-14T16:05:27.497Z,27.67
2023-02-14T16:10:32.075Z,27.80
2023-02-14T16:15:35.784Z,26.05
2023-02-14T16:20:43.379Z,26.92
2023-02-14T16:25:45.603Z,35.78
2023-02-14T16:30:52.541Z,27.70
2023-02-14T16:35:54.894Z,26.92
2023-02-14T16:40:56.581Z,28.98
2023-02-14T16:45:58.259Z,29.63
2023-02-14T16:51:00.123Z,30.55
2023-02-14T16:56:01.984Z,27.63
2023-02-14T17:01:04.096Z,28.67
2023-02-14T17:06:08.124Z,29.73
2023-02-14T17:11:09.852Z,23.05
2023-02-14T17:16:15.413Z,31.02
2023-02-14T17:21:20.456Z,34.33
2023-02-14T17:26:22.796Z,32.53
2023-02-14T17:31:24.795Z,36.33
2023-02-14T17:36:27.844Z,32.17
2023-02-14T17:41:29.563Z,31.60
2023-02-14T17:46:32.307Z,39.53
2023-02-14T17:51:34.052Z,33.78
2023-02-14T17:56:35.820Z,33.63
2023-02-14T18:01:37.486Z,38.80
2023-02-14T18:06:40.307Z,38.05
2023-02-14T18:11:42.263Z,42.42
2023-02-14T18:16:44.732Z,37.55
2023-02-14T18:21:46.430Z,36.42
2023-02-14T18:26:48.234Z,45.40
2023-02-14T18:31:50.046Z,41.20
2023-02-14T18:36:51.788Z,37.10
2023-02-14T18:41:53.461Z,46.03
2023-02-14T18:46:55.380Z,37.05
2023-02-14T18:51:58.808Z,37.92
2023-02-14T18:57:00.491Z,45.38
2023-02-14T19:02:02.237Z,48.55
2023-02-14T19:07:04.503Z,42.03
2023-02-14T19:12:07.020Z,47.25
2023-02-14T19:17:08.729Z,44.00
2023-02-14T19:22:11.024Z,47.08
2023-02-14T19:27:12.718Z,50.90
2023-02-14T19:32:14.452Z,43.17
2023-02-14T19:37:16.141Z,49.35
2023-02-14T19:42:17.800Z,49.33
2023-02-14T19:47:31.288Z,45.95
2023-02-14T19:52:41.432Z,47.97
2023-02-14T19:57:43.520Z,46.65
2023-02-14T20:02:48.213Z,47.15
2023-02-14T20:07:51.898Z,50.42
2023-02-14T20:12:53.581Z,50.75
2023-02-14T20:17:55.577Z,52.40
2023-02-14T20:22:57.214Z,54.70
2023-02-14T20:27:58.800Z,55.03
2023-02-14T20:33:00.694Z,52.65
2023-02-14T20:38:02.815Z,51.88
2023-02-14T20:43:04.569Z,56.78
2023-02-14T20:48:08.538Z,52.78
2023-02-14T20:53:10.298Z,52.53
2023-02-14T20:58:12.222Z,59.35
2023-02-14T21:03:13.855Z,62.25
2023-02-14T21:08:16.324Z,55.97
2023-02-14T21:13:18.012Z,64.43
2023-02-14T21:18:19.607Z,64.72
2023-02-14T21:23:21.212Z,60.33
2023-02-14T21:28:22.841Z,65.63
2023-02-14T21:33:25.383Z,56.50
2023-02-14T21:38:27.993Z,63.22
2023-02-14T21:43:29.621Z,65.47
2023-02-14T21:48:50.293Z,63.67
2023-02-14T21:53:52.508Z,63.22
2023-02-14T21:58:55.622Z,64.50
2023-02-14T22:03:58.908Z,61.40
2023-02-14T22:09:00.655Z,69.30
2023-02-14T22:14:02.912Z,63.38
2023-02-14T22:19:06.009Z,57.40
2023-02-14T22:24:07.812Z,59.08
2023-02-14T22:29:11.441Z,59.95
2023-02-14T22:34:17.662Z,57.50
2023-02-14T22:39:19.470Z,64.47
2023-02-14T22:44:21.092Z,65.43
2023-02-14T22:49:22.898Z,61.53
2023-02-14T22:54:24.548Z,56.72
2023-02-14T22:59:32.083Z,59.22
2023-02-14T23:04:33.694Z,68.57
2023-02-14T23:09:35.359Z,55.08
2023-02-14T23:14:55.620Z,62.42
2023-02-14T23:20:15.635Z,69.35
2023-02-14T23:25:17.311Z,64.80
2023-02-14T23:30:19.271Z,61.03
2023-02-14T23:35:20.906Z,60.72
2023-02-14T23:40:22.561Z,58.22
2023-02-14T23:45:36.104Z,59.30
2023-02-14T23:50:38.295Z,64.55
2023-02-14T23:55:39.913Z,57.03
